Latest Weather Observations for Toowoomba

IDQ60801

Issued at 8:02 pm EST Sunday 14 February 2016 (issued every 30 minutes, with the page automatically refreshed every 10 minutes)

About weather observations | Map of weather stations | Latest weather observations for QLD | Other Formats
Station Details ID: 041529 Name: TOOWOOMBA AIRPORT Lat: -27.54 Lon: 151.91 Height: 640.9 m
Data from the previous 72 hours. | See also: Recent months at Toowoomba
Date/Time
EST
Temp
°C
App
Temp
°C
Dew
Point
Rel
Hum
%
Delta-T
°C
Wind Press
QNH
hPa
Press
MSL
hPa
Rain
since 9 am
mm
Dir
 
Spd
km/h
Gust
km/h
Spd
kts
Gust
kts
14/08:00pm 23.9 20.2 7.9 36 8.7 E 17 20 9 11 1013.2 1009.6 0.0
14/07:30pm 24.1 20.8 8.1 36 8.8 E 15 19 8 10 1013.0 1009.4 0.0
14/07:00pm 24.6 20.9 8.1 35 9.1 ESE 17 20 9 11 1012.7 1009.1 0.0
14/06:30pm 26.5 22.4 8.0 31 10.2 E 19 26 10 14 1012.2 1008.5 0.0
14/06:00pm 27.8 23.6 8.1 29 11.0 E 20 28 11 15 1011.8 1008.2 0.0
14/05:30pm 28.6 23.9 9.3 30 11.0 E 24 32 13 17 1011.3 1007.7 0.0
14/05:00pm 29.5 24.8 9.1 28 11.7 E 24 35 13 19 1010.9 1007.2 0.0
14/04:30pm 30.1 25.6 10.1 29 11.6 E 24 35 13 19 1010.7 1007.0 0.0
14/04:00pm 29.9 26.6 10.9 31 11.2 E 19 28 10 15 1010.5 1006.8 0.0
14/03:30pm 30.0 28.6 13.3 36 10.2 E 13 24 7 13 1010.5 1006.8 0.0
14/03:00pm 30.0 27.8 13.3 36 10.2 E 17 28 9 15 1010.4 1006.7 0.0
14/02:30pm 29.7 28.2 13.0 35 10.2 E 13 20 7 11 1010.6 1006.9 0.0
14/02:00pm 29.5 28.2 12.4 35 10.3 NE 11 17 6 9 1010.9 1007.2 0.0
14/01:30pm 28.4 27.5 12.7 38 9.5 E 9 24 5 13 1011.2 1007.6 0.0
14/01:00pm 28.2 25.8 13.7 41 8.9 ESE 19 26 10 14 1011.3 1007.7 0.0
14/12:30pm 27.5 25.2 11.9 38 9.2 E 15 22 8 12 1011.5 1007.9 0.0
14/12:00pm 27.2 25.6 12.8 41 8.7 E 13 28 7 15 1011.8 1008.2 0.0
14/11:30am 26.7 25.4 13.8 45 7.9 NE 13 22 7 12 1012.1 1008.4 0.0
14/11:00am 26.5 24.9 12.9 43 8.2 E 13 24 7 13 1012.4 1008.8 0.0
14/10:30am 26.3 24.9 13.4 45 7.8 E 13 22 7 12 1012.8 1009.2 0.0
14/10:00am 24.9 24.2 13.1 48 7.1 E 9 15 5 8 1013.0 1009.4 0.0
14/09:30am 24.2 23.0 14.0 53 6.2 E 13 22 7 12 1013.1 1009.5 0.0
14/09:00am 23.0 21.7 14.8 60 5.0 ESE 15 22 8 12 1013.2 1009.6 0.0
14/08:30am 22.1 20.4 13.7 59 5.0 ESE 15 20 8 11 1013.2 1009.6 0.0
14/08:00am 21.7 19.9 13.3 59 5.0 ESE 15 19 8 10 1013.2 1009.6 0.0
14/07:30am 20.1 18.0 13.6 66 3.8 ESE 17 22 9 12 1012.9 1009.3 0.0
14/07:00am 18.5 15.7 13.1 71 3.1 ESE 20 28 11 15 1013.0 1009.4 0.0
14/06:30am 17.1 15.5 14.0 82 1.8 ESE 15 19 8 10 1012.7 1009.1 0.0
14/06:00am 15.6 14.7 13.8 89 1.0 SE 11 15 6 8 1012.7 1009.1 0.0
14/05:30am 15.2 14.0 14.1 93 0.6 ESE 13 17 7 9 1012.4 1008.8 0.0
14/05:00am 15.3 14.1 14.0 92 0.8 ESE 13 17 7 9 1012.4 1008.8 0.0
14/04:30am 15.8 13.9 14.3 91 0.9 E 17 22 9 12 1012.1 1008.4 0.0
14/04:00am 15.7 13.2 14.2 91 0.9 E 20 24 11 13 1012.0 1008.3 0.0
14/03:30am 16.1 13.4 14.5 90 0.9 E 22 28 12 15 1011.8 1008.2 0.0
14/03:00am 16.3 12.4 14.5 89 1.1 E 28 37 15 20 1011.7 1008.1 0.0
14/02:30am 16.3 12.9 14.7 90 0.9 E 26 32 14 17 1012.0 1008.3 0.0
14/02:00am 16.4 13.8 14.9 91 0.9 E 22 30 12 16 1012.3 1008.6 0.0
14/01:30am 16.7 14.2 15.2 91 0.9 E 22 30 12 16 1012.6 1009.0 0.0
14/01:00am 16.8 14.4 15.5 92 0.8 E 22 26 12 14 1012.9 1009.3 0.0
14/12:30am 17.1 15.2 15.8 92 0.8 E 20 26 11 14 1013.2 1009.6 0.0
14/12:00am 17.3 15.5 16.0 92 0.8 E 20 24 11 13 1013.8 1010.2 0.0
 
Date/Time
EST
Temp
°C
App
Temp
°C
Dew
Point
Rel
Hum
%
Delta-T
°C
Wind Press
QNH
hPa
Press
MSL
hPa
Rain
since 9 am
mm
Dir
 
Spd
km/h
Gust
km/h
Spd
kts
Gust
kts
13/11:30pm 17.7 16.0 16.2 91 0.9 E 20 24 11 13 1014.0 1010.4 0.0
13/11:00pm 18.1 16.2 16.6 91 0.9 E 22 30 12 16 1014.1 1010.5 0.0
13/10:30pm 18.4 16.6 16.9 91 0.9 E 22 28 12 15 1014.2 1010.6 0.0
13/10:00pm 18.6 17.3 16.9 90 1.1 E 19 26 10 14 1014.4 1010.8 0.0
13/09:30pm 18.9 17.0 16.7 87 1.4 E 22 28 12 15 1014.6 1011.0 0.0
13/09:00pm 19.3 17.0 16.7 85 1.6 E 24 33 13 18 1014.5 1010.9 0.0
13/08:30pm 19.8 17.5 16.6 82 2.0 E 24 33 13 18 1014.4 1010.8 0.0
13/08:00pm 20.3 17.9 16.3 78 2.5 E 24 30 13 16 1014.3 1010.7 0.0
13/07:30pm 20.9 18.4 16.1 74 3.0 E 24 35 13 19 1014.1 1010.5 0.0
13/07:00pm 21.3 18.3 15.8 71 3.4 E 26 33 14 18 1013.8 1010.2 0.0
13/06:30pm 22.1 18.6 15.5 66 4.1 E 28 37 15 20 1013.6 1009.9 0.0
13/06:00pm 22.9 19.3 15.2 62 4.7 E 28 39 15 21 1013.2 1009.6 0.0
13/05:30pm 23.8 19.6 16.3 63 4.7 E 33 43 18 23 1012.9 1009.3 0.0
13/05:13pm 24.0 20.1 16.5 63 4.7 E 32 50 17 27 1012.8 1009.2 0.0
13/05:00pm 24.5 20.3 16.2 60 5.2 E 33 46 18 25 1012.7 1009.1 0.0
13/04:30pm 25.0 20.9 16.4 59 5.4 E 33 44 18 24 1012.5 1008.9 0.0
13/04:00pm 25.7 22.6 16.5 56 5.8 E 28 39 15 21 1012.6 1009.0 0.0
13/03:30pm 25.8 22.3 16.4 56 5.9 E 30 39 16 21 1012.6 1009.0 0.0
13/03:00pm 25.6 21.1 15.3 53 6.4 E 33 44 18 24 1012.6 1009.0 0.0
13/02:30pm 26.0 21.9 16.0 54 6.3 E 32 41 17 22 1012.9 1009.3 0.0
13/02:00pm 26.2 22.1 16.4 54 6.2 ENE 33 44 18 24 1013.1 1009.5 0.0
13/01:42pm 26.2 22.6 16.2 54 6.3 E 30 48 16 26 1013.3 1009.7 0.0
13/01:30pm 26.6 22.6 16.8 55 6.2 E 33 46 18 25 1013.6 1009.9 0.0
13/01:00pm 26.2 22.3 15.6 52 6.6 E 30 41 16 22 1014.0 1010.4 0.0
13/12:30pm 26.8 23.6 16.4 53 6.6 E 28 43 15 23 1014.3 1010.7 0.0
13/12:00pm 25.5 21.3 14.6 51 6.7 E 30 39 16 21 1014.4 1010.8 0.0
13/11:30am 25.6 23.3 16.7 58 5.6 E 24 33 13 18 1014.5 1010.9 0.0
13/11:00am 25.2 21.7 15.5 55 6.0 ESE 28 39 15 21 1014.8 1011.2 0.0
13/10:30am 24.3 20.5 14.7 55 5.9 E 28 39 15 21 1015.0 1011.4 0.0
13/10:00am 23.7 19.1 14.7 57 5.5 ESE 32 39 17 21 1015.3 1011.7 0.0
13/09:30am 22.8 17.4 13.8 57 5.4 ESE 35 44 19 24 1015.1 1011.6 0.0
13/09:00am 21.8 16.8 13.9 61 4.7 ESE 33 44 18 24 1015.4 1011.8 0.0
13/08:30am 21.3 16.3 13.5 61 4.6 ESE 32 39 17 21 1015.4 1011.8 0.0
13/08:00am 20.6 16.7 14.3 67 3.8 ESE 28 35 15 19 1015.5 1011.9 0.0
13/07:30am 19.6 16.4 14.2 71 3.2 ESE 24 33 13 18 1015.4 1011.8 0.0
13/07:00am 18.5 14.7 14.6 78 2.3 E 28 37 15 20 1015.1 1011.6 0.0
13/06:30am 17.2 14.4 14.3 83 1.7 E 22 28 12 15 1014.9 1011.3 0.0
13/06:00am 16.2 12.9 14.0 87 1.3 E 24 32 13 17 1014.6 1011.0 0.0
13/05:30am 16.3 12.3 14.0 86 1.3 E 28 35 15 19 1014.3 1010.7 0.0
13/05:00am 16.4 12.3 13.9 85 1.5 E 28 35 15 19 1014.1 1010.5 0.0
13/04:30am 16.5 12.7 13.6 83 1.7 ESE 26 32 14 17 1014.2 1010.6 0.0
13/04:00am 16.6 11.9 13.3 81 1.9 ESE 30 35 16 19 1014.0 1010.4 0.0
13/03:30am 16.3 12.4 13.4 83 1.7 ESE 26 32 14 17 1013.9 1010.3 0.0
13/03:00am 16.3 12.8 13.4 83 1.7 E 24 32 13 17 1014.0 1010.4 0.0
13/02:30am 15.8 13.0 13.3 85 1.4 E 20 26 11 14 1014.4 1010.8 0.0
13/02:00am 15.2 13.7 13.2 88 1.1 E 13 17 7 9 1014.8 1011.2 0.0
13/01:30am 15.7 13.8 13.0 84 1.5 E 15 19 8 10 1015.0 1011.4 0.0
13/01:00am 16.5 13.6 13.0 80 2.0 E 20 26 11 14 1014.9 1011.3 0.0
13/12:30am 16.9 13.9 12.4 75 2.6 ESE 20 28 11 15 1015.4 1011.8 0.0
13/12:00am 17.5 14.1 12.4 72 2.9 ESE 22 28 12 15 1015.7 1012.1 0.0
 
Date/Time
EST
Temp
°C
App
Temp
°C
Dew
Point
Rel
Hum
%
Delta-T
°C
Wind Press
QNH
hPa
Press
MSL
hPa
Rain
since 9 am
mm
Dir
 
Spd
km/h
Gust
km/h
Spd
kts
Gust
kts
12/11:30pm 17.8 14.0 12.3 70 3.1 ESE 24 30 13 16 1016.1 1012.5 0.0
12/11:00pm 18.0 14.4 11.8 67 3.5 ESE 22 28 12 15 1016.4 1012.8 0.0
12/10:30pm 18.9 14.1 11.5 62 4.2 E 28 35 15 19 1016.5 1013.0 0.0
12/10:00pm 19.3 14.8 11.3 60 4.5 E 26 32 14 17 1016.6 1013.1 0.0
12/09:30pm 19.6 15.7 12.1 62 4.3 E 24 30 13 16 1017.0 1013.4 0.0
12/09:00pm 19.9 15.9 13.1 65 4.0 E 26 33 14 18 1017.1 1013.5 0.0
12/08:30pm 20.5 16.4 13.7 65 4.0 E 28 39 15 21 1017.1 1013.5 0.0
12/08:00pm 21.1 16.5 14.5 66 4.0 E 32 43 17 23 1016.7 1013.2 0.0
12/07:30pm 21.5 17.5 15.1 67 3.9 E 30 39 16 21 1016.6 1013.1 0.0
12/07:00pm 21.8 18.8 15.9 69 3.6 E 26 37 14 20 1016.2 1012.6 0.0
12/06:30pm 22.3 20.0 15.6 66 4.1 E 22 32 12 17 1015.8 1012.2 0.0
12/06:00pm 23.2 18.9 15.5 62 4.7 E 32 41 17 22 1015.5 1011.9 0.0
12/05:30pm 24.7 20.1 14.5 53 6.2 E 32 43 17 23 1015.1 1011.6 0.0
12/05:00pm 25.1 21.0 14.9 53 6.3 E 30 39 16 21 1014.8 1011.2 0.0
12/04:30pm 25.3 20.3 14.1 50 6.8 E 33 44 18 24 1014.5 1010.9 0.0
12/04:00pm 27.2 24.3 13.9 44 8.1 E 22 33 12 18 1014.5 1010.9 0.0
12/03:30pm 27.0 22.7 11.9 39 8.9 ESE 26 33 14 18 1014.6 1011.0 0.0
12/03:00pm 26.7 23.9 13.1 43 8.2 E 20 30 11 16 1014.7 1011.1 0.0
12/02:30pm 26.8 23.7 13.5 44 8.1 ESE 22 37 12 20 1014.9 1011.3 0.0
12/02:00pm 26.8 24.5 14.2 46 7.7 E 19 28 10 15 1015.1 1011.6 0.0
12/01:30pm 25.9 22.8 13.4 46 7.5 E 22 30 12 16 1015.5 1011.9 0.0
12/01:00pm 25.9 22.8 13.4 46 7.5 ESE 22 30 12 16 1015.7 1012.1 0.0
12/12:30pm 25.6 23.0 15.0 52 6.5 E 22 32 12 17 1016.0 1012.4 0.0
12/12:00pm 25.5 22.4 14.6 51 6.7 E 24 35 13 19 1016.1 1012.5 0.0
12/11:30am 24.3 20.7 14.1 53 6.2 E 26 39 14 21 1016.5 1013.0 0.0
12/11:00am 23.7 20.4 14.1 55 5.8 E 24 39 13 21 1016.9 1013.3 0.0
12/10:30am 24.2 20.5 14.9 56 5.7 E 28 39 15 21 1017.0 1013.4 0.0
12/10:00am 23.7 19.8 14.4 56 5.6 E 28 37 15 20 1017.2 1013.6 0.0
12/09:30am 22.7 18.8 14.5 60 5.0 E 28 35 15 19 1017.3 1013.7 0.0
12/09:00am 21.9 17.3 13.5 59 5.0 ESE 30 39 16 21 1017.1 1013.5 0.0
12/08:30am 21.3 16.9 14.0 63 4.4 ESE 30 41 16 22 1017.2 1013.6 0.0
12/08:00am 20.5 15.2 13.2 63 4.3 ESE 33 44 18 24 1017.1 1013.5 0.0
12/07:30am 19.6 14.6 13.5 68 3.6 ESE 32 43 17 23 1016.9 1013.3 0.0
12/07:00am 18.7 14.2 13.8 73 2.9 ESE 30 43 16 23 1016.4 1012.8 0.0
12/06:30am 18.0 13.5 13.7 76 2.5 E 30 37 16 20 1016.3 1012.7 0.0
12/06:00am 17.2 13.7 13.5 79 2.2 E 24 32 13 17 1016.0 1012.4 0.0
12/05:30am 16.7 14.0 13.6 82 1.8 E 20 26 11 14 1016.3 1012.7 0.0
12/05:00am 16.7 13.4 14.0 84 1.6 E 24 28 13 15 1016.1 1012.5 0.0
12/04:30am 16.8 13.2 14.1 84 1.6 E 26 32 14 17 1015.8 1012.2 0.0
12/04:00am 16.6 13.8 14.4 87 1.3 ESE 22 28 12 15 1015.8 1012.2 0.0
12/03:30am 16.7 14.4 14.7 88 1.2 ESE 20 26 11 14 1015.9 1012.3 0.0
12/03:00am 16.9 14.8 15.2 90 1.0 ESE 20 26 11 14 1016.0 1012.4 0.0
12/02:30am 16.9 14.9 15.4 91 0.9 ESE 20 24 11 13 1016.0 1012.4 0.0
12/02:00am 16.9 14.9 15.6 92 0.8 ESE 20 24 11 13 1016.2 1012.6 0.0
12/01:30am 17.1 14.8 15.6 91 0.9 ESE 22 26 12 14 1016.0 1012.4 0.0
12/01:00am 17.5 14.9 15.8 90 1.0 E 24 30 13 16 1016.1 1012.5 0.0
12/12:30am 17.8 14.9 16.0 89 1.1 E 26 33 14 18 1016.5 1013.0 0.0
12/12:00am 18.0 15.8 16.0 88 1.2 ESE 22 30 12 16 1017.0 1013.4 0.0
 
Date/Time
EST
Temp
°C
App
Temp
°C
Dew
Point
Rel
Hum
%
Delta-T
°C
Wind Press
QNH
hPa
Press
MSL
hPa
Rain
since 9 am
mm
Dir
 
Spd
km/h
Gust
km/h
Spd
kts
Gust
kts
11/11:30pm 18.4 15.2 16.2 87 1.3 E 28 37 15 20 1017.0 1013.4 0.0
11/11:00pm 18.7 15.0 16.1 85 1.6 E 30 35 16 19 1017.1 1013.5 0.0
11/10:30pm 19.1 15.0 16.0 82 1.9 E 32 43 17 23 1017.1 1013.5 0.0
11/10:00pm 19.4 15.1 15.5 78 2.4 E 32 43 17 23 1017.1 1013.5 0.0
11/09:30pm 19.8 15.2 15.2 75 2.8 E 33 44 18 24 1017.2 1013.6 0.0
11/09:00pm 20.1 15.7 15.1 73 3.0 E 32 43 17 23 1017.0 1013.4 0.0
11/08:30pm 20.7 16.2 15.5 72 3.2 E 33 44 18 24 1016.5 1013.0 0.0

Other Formats:

Comma delimited format used in spreadsheet applications
http://www.bom.gov.au/fwo/IDQ60801/IDQ60801.95551.axf

JavaScript Object Notation format (JSON) in row-major order
http://www.bom.gov.au/fwo/IDQ60801/IDQ60801.95551.json